createdAt,value
2022-10-01T00:17:35.973Z,26.27
2022-10-01T00:18:59.114Z,27.56
2022-10-01T00:19:51.231Z,27.56
2022-10-01T00:40:47.931Z,26.31
2022-10-01T00:41:53.404Z,25.37
2022-10-01T00:42:58.937Z,27.31
2022-10-01T00:44:05.982Z,26.94
2022-10-01T00:45:12.219Z,28.06
2022-10-01T00:46:37.390Z,27.13
2022-10-01T02:16:30.243Z,26.12
2022-10-01T02:17:58.974Z,26.56
2022-10-01T03:09:44.951Z,25.44
2022-10-01T03:10:49.058Z,24.12
2022-10-01T03:11:52.932Z,23.31
2022-10-01T03:12:56.917Z,26.60
2022-10-01T03:14:04.084Z,25.69
2022-10-01T03:40:26.824Z,21.44
2022-10-01T03:41:34.531Z,17.44
2022-10-01T03:42:41.000Z,21.19
2022-10-01T04:35:26.191Z,13.25
2022-10-01T04:39:00.797Z,12.50
2022-10-01T04:40:03.665Z,11.19
2022-10-01T04:41:10.705Z,11.06
2022-10-01T04:42:14.961Z,10.50
2022-10-01T04:43:20.328Z,9.00
2022-10-01T04:44:24.277Z,11.75
2022-10-01T04:45:30.690Z,11.88
2022-10-01T04:46:34.667Z,8.56
2022-10-01T04:47:38.620Z,13.06
2022-10-01T04:48:42.546Z,11.63
2022-10-01T04:49:46.449Z,10.63
2022-10-01T04:50:50.464Z,11.25
2022-10-01T04:51:55.948Z,11.38
2022-10-01T04:53:08.225Z,11.75
2022-10-01T04:54:07.218Z,12.94
2022-10-01T04:55:11.626Z,11.63
2022-10-01T04:56:17.255Z,10.44
2022-10-01T04:57:23.559Z,12.88
2022-10-01T04:58:27.469Z,11.19
2022-10-01T04:59:31.355Z,11.63
2022-10-01T05:00:43.660Z,15.75
2022-10-01T05:01:45.658Z,13.75
2022-10-01T05:02:52.860Z,11.88
2022-10-01T05:03:57.986Z,10.69
2022-10-01T05:05:12.559Z,10.88
2022-10-01T05:06:16.876Z,10.69
2022-10-01T05:07:22.954Z,10.50
2022-10-01T05:08:28.666Z,11.88
2022-10-01T05:09:36.165Z,10.75
2022-10-01T06:35:47.275Z,13.25
2022-10-01T06:36:54.949Z,11.69
2022-10-01T06:38:07.083Z,16.19
2022-10-01T07:01:18.378Z,11.81
2022-10-01T07:02:29.571Z,10.94
2022-10-01T10:19:51.090Z,2.19
2022-10-01T10:20:59.277Z,1.87
2022-10-01T10:22:17.709Z,1.56
2022-10-01T10:23:24.270Z,3.12
2022-10-01T10:24:36.974Z,0.88
2022-10-01T10:31:20.903Z,4.50
2022-10-01T10:32:26.252Z,1.87
2022-10-01T10:33:38.100Z,3.31
2022-10-01T10:34:44.019Z,2.56
2022-10-01T10:35:55.679Z,2.56
2022-10-01T10:37:34.307Z,1.87
2022-10-01T12:32:11.415Z,2.12
2022-10-01T12:33:36.139Z,1.25
2022-10-01T12:34:56.935Z,2.19
2022-10-01T13:03:24.314Z,6.00
2022-10-01T13:04:46.815Z,8.00
2022-10-01T13:05:56.420Z,3.75
2022-10-01T13:07:22.291Z,2.94
2022-10-01T13:08:40.492Z,2.44
2022-10-01T13:10:04.665Z,3.50
2022-10-01T13:11:31.803Z,1.62
2022-10-01T13:14:07.269Z,1.56
2022-10-01T13:15:18.275Z,1.62
2022-10-01T13:16:37.513Z,1.62
2022-10-01T14:46:52.791Z,25.56
2022-10-01T16:08:12.767Z,25.06
2022-10-01T16:46:56.017Z,23.06
2022-10-01T16:47:58.086Z,22.56
2022-10-01T16:49:07.770Z,22.87
2022-10-01T16:53:04.557Z,21.62
2022-10-01T17:16:03.767Z,21.56
2022-10-01T17:17:10.972Z,21.31
2022-10-01T17:18:15.096Z,19.19
2022-10-01T17:19:22.371Z,17.37
2022-10-01T17:20:34.045Z,19.94
2022-10-01T17:21:40.540Z,18.62
2022-10-01T17:22:46.193Z,21.37
2022-10-01T17:23:53.956Z,20.69
2022-10-01T17:25:05.126Z,18.81
2022-10-01T19:33:08.037Z,12.88
2022-10-01T19:34:44.134Z,11.69
2022-10-01T19:55:05.236Z,15.25
2022-10-01T20:15:54.841Z,15.88
2022-10-01T20:33:20.576Z,15.13
2022-10-01T20:34:53.918Z,13.62
2022-10-01T20:36:00.926Z,14.25
2022-10-01T20:37:25.657Z,14.69
2022-10-01T20:38:34.322Z,14.13
2022-10-01T20:39:44.359Z,14.13
2022-10-01T20:40:57.549Z,13.62
2022-10-01T20:42:05.963Z,14.50
2022-10-01T20:43:23.140Z,15.44
2022-10-01T20:44:35.647Z,14.06
2022-10-01T20:45:41.128Z,15.44
2022-10-01T20:46:49.657Z,15.00
2022-10-01T21:08:01.386Z,14.56
2022-10-01T21:41:53.495Z,15.13
2022-10-01T21:43:18.422Z,15.44
2022-10-01T21:44:40.264Z,15.94
2022-10-01T21:45:59.321Z,14.06
2022-10-01T21:47:40.671Z,13.75
2022-10-01T21:48:52.234Z,13.06
2022-10-01T21:50:05.092Z,13.06
2022-10-01T21:51:17.983Z,14.63
2022-10-01T21:52:48.573Z,14.06
2022-10-01T21:54:17.898Z,14.00
2022-10-01T21:55:26.449Z,13.56
2022-10-01T21:56:47.269Z,15.38
2022-10-01T21:57:56.921Z,15.56
2022-10-01T21:59:09.399Z,15.19
2022-10-01T22:00:20.134Z,17.00
2022-10-01T22:03:15.634Z,14.75
2022-10-01T22:03:23.354Z,14.13
2022-10-01T22:04:38.867Z,14.38
2022-10-01T22:05:47.900Z,14.50
2022-10-01T22:07:02.884Z,15.44
2022-10-01T22:08:43.608Z,14.38
2022-10-01T22:09:53.402Z,12.75
2022-10-01T22:11:00.385Z,15.94
2022-10-01T22:12:06.629Z,14.19
